createdAt,value
2022-10-01T00:04:09.258Z,96068.53
2022-10-01T00:09:12.037Z,96053.59
2022-10-01T00:14:14.862Z,96050.03
2022-10-01T00:19:19.010Z,96053.88
2022-10-01T00:24:21.801Z,96056.56
2022-10-01T00:29:24.586Z,96066.28
2022-10-01T00:34:28.737Z,96074.06
2022-10-01T00:39:31.562Z,96068.59
2022-10-01T00:44:36.775Z,96068.47
2022-10-01T00:49:41.973Z,96067.78
2022-10-01T00:54:49.285Z,96081.47
2022-10-01T00:59:54.148Z,96078.44
2022-10-01T01:04:59.230Z,96083.84
2022-10-01T01:10:03.049Z,96085.06
2022-10-01T01:15:16.173Z,96073.72
2022-10-01T01:20:51.787Z,96102.84
2022-10-01T01:26:03.516Z,96102.22
2022-10-01T01:31:14.412Z,96097.94
2022-10-01T01:36:22.599Z,96100.84
2022-10-01T01:41:29.367Z,96097.47
2022-10-01T01:46:36.930Z,96092.25
2022-10-01T01:51:46.829Z,96082.97
2022-10-01T01:56:51.330Z,96081.31
2022-10-01T02:01:55.625Z,96099.50
2022-10-01T02:07:16.196Z,96097.59
2022-10-01T02:12:30.278Z,96112.25
2022-10-01T02:17:45.999Z,96095.91
2022-10-01T02:22:53.878Z,96106.47
2022-10-01T02:28:01.034Z,96104.31
2022-10-01T02:33:08.170Z,96107.34
2022-10-01T02:38:12.071Z,96100.91
2022-10-01T02:43:18.949Z,96092.63
2022-10-01T02:48:23.319Z,96098.25
2022-10-01T02:53:33.214Z,96101.53
2022-10-01T02:58:36.362Z,96111.78
2022-10-01T03:03:43.063Z,96110.41
2022-10-01T03:08:45.939Z,96106.47
2022-10-01T03:13:48.748Z,96111.81
2022-10-01T03:18:52.929Z,96101.16
2022-10-01T03:23:55.720Z,96103.75
2022-10-01T03:28:58.556Z,96100.09
2022-10-01T03:34:02.775Z,96104.69
2022-10-01T03:39:05.609Z,96111.00
2022-10-01T03:44:08.423Z,96112.91
2022-10-01T03:49:12.652Z,96115.69
2022-10-01T03:54:15.627Z,96124.72
2022-10-01T03:59:19.390Z,96125.16
2022-10-01T04:04:23.565Z,96131.34
2022-10-01T04:09:26.385Z,96123.97
2022-10-01T04:14:29.182Z,96129.44
2022-10-01T04:19:33.394Z,96142.06
2022-10-01T04:24:36.194Z,96137.03
2022-10-01T04:29:40.393Z,96133.84
2022-10-01T04:34:53.421Z,96141.53
2022-10-01T04:39:56.359Z,96163.16
2022-10-01T04:44:59.142Z,96151.38
2022-10-01T04:50:03.235Z,96151.53
2022-10-01T04:55:06.750Z,96165.34
2022-10-01T05:00:12.086Z,96170.28
2022-10-01T05:05:17.949Z,96171.69
2022-10-01T05:10:22.881Z,96178.81
2022-10-01T05:15:25.709Z,96164.97
2022-10-01T05:20:30.166Z,96171.69
2022-10-01T05:25:33.107Z,96176.06
2022-10-01T05:30:35.903Z,96180.31
2022-10-01T05:35:42.441Z,96187.84
2022-10-01T05:40:47.409Z,96195.94
2022-10-01T05:45:51.234Z,96204.03
2022-10-01T05:50:55.805Z,96186.34
2022-10-01T05:56:03.062Z,96194.97
2022-10-01T06:01:05.918Z,96197.19
2022-10-01T06:06:10.149Z,96196.94
2022-10-01T06:11:12.833Z,96201.03
2022-10-01T06:16:16.476Z,96203.91
2022-10-01T06:21:20.824Z,96219.69
2022-10-01T06:26:24.353Z,96216.38
2022-10-01T06:31:27.629Z,96222.56
2022-10-01T06:36:31.738Z,96233.13
2022-10-01T06:41:35.087Z,96217.75
2022-10-01T06:46:38.007Z,96237.78
2022-10-01T06:51:59.393Z,96252.56
2022-10-01T06:57:02.128Z,96268.75
2022-10-01T07:02:05.005Z,96272.75
2022-10-01T07:07:09.179Z,96257.53
2022-10-01T07:12:11.995Z,96249.84
2022-10-01T07:17:14.780Z,96256.56
2022-10-01T07:22:19.413Z,96265.19
2022-10-01T07:27:22.260Z,96264.09
2022-10-01T07:32:25.018Z,96278.91
2022-10-01T07:37:29.159Z,96264.63
2022-10-01T07:42:31.924Z,96263.09
2022-10-01T07:47:34.695Z,96268.50
2022-10-01T07:52:39.169Z,96273.44
2022-10-01T07:57:42.192Z,96286.88
2022-10-01T08:02:48.174Z,96272.84
2022-10-01T08:07:54.063Z,96262.66
2022-10-01T08:13:01.356Z,96256.06
2022-10-01T08:18:05.753Z,96254.94
2022-10-01T08:23:11.821Z,96262.88
2022-10-01T08:28:15.608Z,96276.72
2022-10-01T08:33:18.542Z,96290.84
2022-10-01T08:38:22.706Z,96295.78
2022-10-01T08:43:33.126Z,96308.44
2022-10-01T08:48:46.203Z,96327.97
2022-10-01T08:53:55.610Z,96333.47
2022-10-01T08:59:01.127Z,96351.03
2022-10-01T09:04:05.902Z,96352.13
2022-10-01T09:09:25.542Z,96359.56
2022-10-01T09:14:40.611Z,96367.25
2022-10-01T09:20:02.669Z,96376.59
2022-10-01T09:25:14.764Z,96388.41
2022-10-01T09:30:20.595Z,96384.56
2022-10-01T09:35:41.830Z,96381.16
2022-10-01T09:40:52.929Z,96388.16
2022-10-01T09:45:56.189Z,96382.78
2022-10-01T09:51:04.970Z,96395.28
2022-10-01T09:56:15.820Z,96392.94
2022-10-01T10:01:24.659Z,96400.78
2022-10-01T10:06:30.676Z,96402.25
2022-10-01T10:11:35.707Z,96411.56
2022-10-01T10:16:46.772Z,96406.78
2022-10-01T10:21:53.975Z,96422.16
2022-10-01T10:26:59.810Z,96413.22
2022-10-01T10:32:07.705Z,96418.56
2022-10-01T10:37:15.839Z,96428.19
2022-10-01T10:42:22.298Z,96420.38
2022-10-01T10:47:28.399Z,96416.13
2022-10-01T10:52:35.272Z,96408.34
2022-10-01T10:57:39.817Z,96410.94
2022-10-01T11:02:51.820Z,96408.19
2022-10-01T11:07:58.746Z,96404.91
2022-10-01T11:13:18.720Z,96431.00
2022-10-01T11:18:45.254Z,96427.16
2022-10-01T11:24:08.350Z,96435.38
2022-10-01T11:29:27.493Z,96432.63
2022-10-01T11:34:48.717Z,96433.03
2022-10-01T11:39:57.472Z,96430.44
2022-10-01T11:45:07.256Z,96425.75
2022-10-01T11:50:18.691Z,96433.47
2022-10-01T11:55:42.349Z,96425.50
2022-10-01T12:00:59.759Z,96416.69
2022-10-01T12:06:03.531Z,96429.03
2022-10-01T12:11:16.128Z,96424.22
2022-10-01T12:16:32.584Z,96413.09
2022-10-01T12:21:39.131Z,96409.22
2022-10-01T12:26:52.751Z,96410.88
2022-10-01T12:32:06.239Z,96398.78
2022-10-01T12:37:20.062Z,96395.50
2022-10-01T12:42:54.787Z,96407.34
2022-10-01T12:48:07.952Z,96415.03
2022-10-01T12:53:24.846Z,96417.50
2022-10-01T12:59:09.158Z,96404.91
2022-10-01T13:04:47.659Z,96400.22
2022-10-01T13:10:03.669Z,96405.84
2022-10-01T13:15:13.788Z,96406.78
2022-10-01T13:20:24.838Z,96404.59
2022-10-01T13:25:37.739Z,96405.00
2022-10-01T13:30:56.728Z,96415.84
2022-10-01T13:36:02.176Z,96415.56
2022-10-01T13:41:16.632Z,96409.78
2022-10-01T13:46:19.775Z,96412.34
2022-10-01T13:51:22.808Z,96423.16
2022-10-01T13:56:32.859Z,96423.41
2022-10-01T14:01:41.205Z,96409.56
2022-10-01T14:06:49.824Z,96421.25
2022-10-01T14:12:16.401Z,96416.56
2022-10-01T14:17:22.912Z,96414.09
2022-10-01T14:22:44.411Z,96414.25
2022-10-01T14:27:54.167Z,96409.69
2022-10-01T14:33:14.039Z,96405.84
2022-10-01T14:38:21.247Z,96421.38
2022-10-01T14:43:27.303Z,96447.50
2022-10-01T14:48:32.340Z,96445.56
2022-10-01T14:53:38.698Z,96442.09
2022-10-01T14:58:46.122Z,96446.31
2022-10-01T15:03:51.057Z,96450.97
2022-10-01T15:08:56.206Z,96457.41
2022-10-01T15:14:04.002Z,96435.56
2022-10-01T15:19:10.411Z,96442.00
2022-10-01T15:24:25.048Z,96445.88
2022-10-01T15:29:29.413Z,96434.63
2022-10-01T15:34:33.296Z,96428.81
2022-10-01T15:39:39.351Z,96424.09
2022-10-01T15:44:47.228Z,96427.69
2022-10-01T15:50:03.408Z,96431.56
2022-10-01T15:55:15.242Z,96426.31
2022-10-01T16:00:28.507Z,96427.69
2022-10-01T16:05:46.942Z,96454.13
2022-10-01T16:11:08.619Z,96458.94
2022-10-01T16:16:30.924Z,96474.53
2022-10-01T16:21:41.755Z,96482.94
2022-10-01T16:26:45.844Z,96488.81
2022-10-01T16:31:51.511Z,96470.69
2022-10-01T16:36:54.376Z,96480.31
2022-10-01T16:42:22.295Z,96494.22
2022-10-01T16:47:21.340Z,96496.84
2022-10-01T16:52:24.134Z,96503.41
2022-10-01T16:57:26.986Z,96507.97
2022-10-01T17:02:32.618Z,96510.19
2022-10-01T17:07:35.574Z,96507.44
2022-10-01T17:12:38.779Z,96507.28
2022-10-01T17:17:42.888Z,96522.59
2022-10-01T17:22:45.793Z,96540.88
2022-10-01T17:27:48.917Z,96531.38
2022-10-01T17:32:53.519Z,96522.59
2022-10-01T17:37:56.365Z,96536.59
2022-10-01T17:42:59.163Z,96547.75
2022-10-01T17:48:03.794Z,96563.00
2022-10-01T17:53:06.538Z,96565.19
2022-10-01T17:58:10.182Z,96559.66
2022-10-01T18:03:14.452Z,96561.19
2022-10-01T18:08:17.548Z,96556.50
2022-10-01T18:13:20.493Z,96571.72
2022-10-01T18:19:48.633Z,96572.59
2022-10-01T18:23:47.817Z,96576.25
2022-10-01T18:28:51.598Z,96595.69
2022-10-01T18:33:58.512Z,96614.09
2022-10-01T18:39:08.620Z,96629.19
2022-10-01T18:44:17.995Z,96630.59
2022-10-01T18:50:04.018Z,96629.31
2022-10-01T18:55:21.568Z,96623.66
2022-10-01T19:00:24.555Z,96608.50
2022-10-01T19:05:59.438Z,96613.59
2022-10-01T19:11:07.863Z,96613.44
2022-10-01T19:16:22.387Z,96632.44
2022-10-01T19:21:34.915Z,96639.28
2022-10-01T19:26:45.516Z,96649.63
2022-10-01T19:31:55.504Z,96636.25
2022-10-01T19:37:06.172Z,96643.16
2022-10-01T19:42:15.824Z,96646.59
2022-10-01T19:47:28.773Z,96643.97
2022-10-01T19:52:39.553Z,96660.34
2022-10-01T19:57:43.631Z,96653.03
2022-10-01T20:02:59.799Z,96659.78
2022-10-01T20:08:15.867Z,96669.84
2022-10-01T20:13:31.575Z,96678.66
2022-10-01T20:18:42.522Z,96665.72
2022-10-01T20:23:53.002Z,96667.09
2022-10-01T20:29:21.710Z,96675.34
2022-10-01T20:34:34.091Z,96667.31
2022-10-01T20:39:42.696Z,96695.16
2022-10-01T20:44:46.309Z,96692.69
2022-10-01T20:49:55.170Z,96695.97
2022-10-01T20:55:04.703Z,96691.28
2022-10-01T21:00:14.814Z,96697.88
2022-10-01T21:05:26.106Z,96686.41
2022-10-01T21:10:38.752Z,96690.41
2022-10-01T21:15:53.632Z,96688.75
2022-10-01T21:21:05.747Z,96699.22
2022-10-01T21:26:17.325Z,96714.56
2022-10-01T21:31:34.289Z,96718.53
2022-10-01T21:36:49.158Z,96722.91
2022-10-01T21:42:01.904Z,96703.84
2022-10-01T21:47:10.069Z,96699.66
2022-10-01T21:52:28.615Z,96710.38
2022-10-01T21:58:01.340Z,96716.47
2022-10-01T22:03:16.287Z,96718.31
2022-10-01T22:08:46.337Z,96756.75
2022-10-01T22:13:54.158Z,96750.25
2022-10-01T22:18:58.330Z,96763.41
2022-10-01T22:24:07.258Z,96778.34
2022-10-01T22:29:17.256Z,96789.09
2022-10-01T22:34:24.248Z,96768.28
2022-10-01T22:39:30.114Z,96774.22
2022-10-01T22:44:34.622Z,96786.47
2022-10-01T22:49:59.260Z,96789.09
2022-10-01T22:55:16.090Z,96790.34
2022-10-01T23:00:21.595Z,96789.34
2022-10-01T23:05:40.870Z,96801.78
2022-10-01T23:10:52.229Z,96798.50
2022-10-01T23:16:08.902Z,96794.72
2022-10-01T23:21:24.836Z,96799.16
2022-10-01T23:26:37.264Z,96796.69
2022-10-01T23:31:51.580Z,96803.44
2022-10-01T23:37:04.088Z,96790.34
2022-10-01T23:42:20.213Z,96796.81
2022-10-01T23:47:39.646Z,96800.13
2022-10-01T23:52:49.048Z,96800.13
2022-10-01T23:58:02.356Z,96799.31
